createdAt,value
2022-09-23T00:00:48.367Z,5.82
2022-09-23T00:03:16.099Z,4.18
2022-09-23T00:05:43.156Z,4.07
2022-09-23T00:08:11.678Z,4.97
2022-09-23T00:10:39.853Z,3.53
2022-09-23T00:13:06.496Z,4.55
2022-09-23T00:15:38.769Z,3.90
2022-09-23T00:18:05.403Z,3.92
2022-09-23T00:20:33.712Z,3.30
2022-09-23T00:23:00.510Z,4.32
2022-09-23T00:25:29.696Z,4.97
2022-09-23T00:27:56.734Z,3.70
2022-09-23T00:30:23.635Z,5.63
2022-09-23T00:32:50.084Z,5.07
2022-09-23T00:35:16.640Z,3.53
2022-09-23T00:37:42.999Z,4.68
2022-09-23T00:40:10.648Z,4.65
2022-09-23T00:42:37.056Z,6.82
2022-09-23T00:45:04.292Z,3.05
2022-09-23T00:47:50.386Z,4.00
2022-09-23T00:50:35.132Z,3.63
2022-09-23T00:53:05.503Z,3.53
2022-09-23T00:55:42.069Z,3.53
2022-09-23T00:58:12.499Z,5.40
2022-09-23T01:00:39.074Z,4.95
2022-09-23T01:03:06.878Z,5.25
2022-09-23T01:05:34.071Z,4.60
2022-09-23T01:08:02.553Z,4.65
2022-09-23T01:10:42.997Z,5.00
2022-09-23T01:13:46.915Z,6.15
2022-09-23T01:16:21.481Z,7.22
2022-09-23T01:19:05.300Z,5.53
2022-09-23T01:22:14.371Z,6.65
2022-09-23T01:24:55.182Z,6.63
2022-09-23T01:27:30.744Z,4.75
2022-09-23T01:30:09.700Z,4.32
2022-09-23T01:32:58.290Z,6.32
2022-09-23T01:35:47.967Z,4.15
2022-09-23T01:38:34.657Z,4.82
2022-09-23T01:41:04.525Z,4.25
2022-09-23T01:43:43.703Z,4.72
2022-09-23T01:46:17.707Z,4.40
2022-09-23T01:48:54.080Z,4.03
2022-09-23T01:51:26.636Z,4.50
2022-09-23T01:54:18.181Z,4.78
2022-09-23T01:56:56.229Z,4.10
2022-09-23T01:59:40.679Z,4.30
2022-09-23T02:02:23.672Z,5.97
2022-09-23T02:05:06.852Z,6.88
2022-09-23T02:07:33.162Z,5.57
2022-09-23T02:10:07.309Z,4.63
2022-09-23T02:12:38.282Z,6.60
2022-09-23T02:15:10.071Z,6.15
2022-09-23T02:17:48.312Z,5.32
2022-09-23T02:20:20.973Z,7.57
2022-09-23T02:22:56.415Z,3.97
2022-09-23T02:25:35.184Z,5.20
2022-09-23T02:28:31.147Z,6.07
2022-09-23T02:31:13.023Z,8.88
2022-09-23T02:33:51.120Z,7.70
2022-09-23T02:36:29.965Z,4.38
2022-09-23T02:39:00.790Z,4.60
2022-09-23T02:41:39.251Z,5.47
2022-09-23T02:44:16.387Z,4.72
2022-09-23T02:46:43.667Z,6.57
2022-09-23T02:49:15.017Z,3.78
2022-09-23T02:51:41.746Z,4.65
2022-09-23T02:54:14.826Z,4.97
2022-09-23T02:56:41.724Z,5.10
2022-09-23T02:59:09.521Z,7.28
2022-09-23T03:02:13.672Z,5.28
2022-09-23T03:05:19.363Z,8.02
2022-09-23T03:07:52.957Z,6.65
2022-09-23T03:10:22.857Z,5.75
2022-09-23T03:12:58.193Z,7.32
2022-09-23T03:15:37.919Z,7.93
2022-09-23T03:18:14.438Z,7.55
2022-09-23T03:20:46.240Z,7.82
2022-09-23T03:23:15.192Z,6.10
2022-09-23T03:25:45.768Z,4.95
2022-09-23T03:28:14.696Z,5.72
2022-09-23T03:30:43.481Z,6.78
2022-09-23T03:33:12.666Z,6.18
2022-09-23T03:36:07.563Z,4.88
2022-09-23T03:41:06.123Z,5.85
2022-09-23T03:43:37.999Z,6.25
2022-09-23T03:46:07.167Z,5.45
2022-09-23T03:48:33.792Z,6.80
2022-09-23T03:51:17.786Z,7.07
2022-09-23T03:53:44.146Z,8.07
2022-09-23T03:56:11.672Z,5.45
2022-09-23T03:58:38.247Z,6.70
2022-09-23T04:01:06.196Z,7.20
2022-09-23T04:03:32.750Z,6.55
2022-09-23T04:05:59.186Z,9.88
2022-09-23T04:08:25.521Z,6.20
2022-09-23T04:10:54.880Z,6.47
2022-09-23T04:13:21.426Z,7.07
2022-09-23T04:15:50.247Z,6.05
2022-09-23T04:18:16.584Z,7.05
2022-09-23T04:20:43.017Z,8.20
2022-09-23T04:23:09.407Z,6.07
2022-09-23T04:25:35.915Z,6.35
2022-09-23T04:28:02.694Z,7.75
2022-09-23T04:30:29.096Z,6.18
2022-09-23T04:32:55.521Z,7.25
2022-09-23T04:35:21.895Z,6.70
2022-09-23T04:37:48.756Z,10.88
2022-09-23T04:40:15.400Z,9.23
2022-09-23T04:42:41.888Z,7.50
2022-09-23T04:45:08.605Z,5.50
2022-09-23T04:47:35.035Z,5.38
2022-09-23T04:50:01.506Z,8.68
2022-09-23T04:52:29.900Z,8.50
2022-09-23T04:54:56.351Z,7.63
2022-09-23T04:57:24.601Z,5.85
2022-09-23T04:59:51.037Z,4.50
2022-09-23T05:02:17.418Z,6.13
2022-09-23T05:04:44.563Z,7.05
2022-09-23T05:07:12.098Z,5.95
2022-09-23T05:09:38.716Z,7.10
2022-09-23T05:12:05.446Z,6.45
2022-09-23T05:14:31.795Z,6.00
2022-09-23T05:16:58.188Z,9.85
2022-09-23T05:19:24.588Z,9.38
2022-09-23T05:21:50.956Z,7.15
2022-09-23T05:24:17.539Z,6.25
2022-09-23T05:26:43.874Z,6.57
2022-09-23T05:29:10.445Z,6.25
2022-09-23T05:31:36.951Z,7.68
2022-09-23T05:34:05.119Z,9.65
2022-09-23T05:36:37.954Z,9.02
2022-09-23T05:39:05.942Z,8.32
2022-09-23T05:41:33.883Z,10.85
2022-09-23T05:44:00.793Z,6.32
2022-09-23T05:46:29.379Z,6.10
2022-09-23T05:49:01.784Z,8.63
2022-09-23T05:51:31.194Z,6.10
2022-09-23T05:53:58.872Z,8.43
2022-09-23T05:56:27.864Z,8.88
2022-09-23T05:58:56.364Z,5.13
2022-09-23T06:01:25.846Z,7.07
2022-09-23T06:03:53.683Z,7.75
2022-09-23T06:06:24.183Z,6.13
2022-09-23T06:08:50.825Z,7.65
2022-09-23T06:11:17.395Z,6.85
2022-09-23T06:13:44.006Z,6.38
2022-09-23T06:16:12.872Z,3.92
2022-09-23T06:18:44.302Z,6.32
2022-09-23T06:21:16.544Z,8.13
2022-09-23T06:23:45.138Z,8.15
2022-09-23T06:26:14.752Z,6.47
2022-09-23T06:28:42.975Z,5.57
2022-09-23T06:31:17.214Z,6.80
2022-09-23T06:33:45.570Z,5.60
2022-09-23T06:36:20.782Z,4.03
2022-09-23T06:38:51.038Z,5.10
2022-09-23T06:41:20.675Z,4.90
2022-09-23T06:43:47.741Z,6.40
2022-09-23T06:46:16.126Z,8.38
2022-09-23T06:48:46.450Z,5.75
2022-09-23T06:51:22.900Z,5.50
2022-09-23T06:53:49.490Z,5.28
2022-09-23T06:56:19.947Z,5.93
2022-09-23T06:58:46.923Z,6.65
2022-09-23T07:01:16.203Z,5.43
2022-09-23T07:03:43.765Z,10.65
2022-09-23T07:06:10.555Z,5.82
2022-09-23T07:08:37.378Z,14.30
2022-09-23T07:11:06.311Z,8.00
2022-09-23T07:13:33.504Z,7.43
2022-09-23T07:16:01.971Z,11.02
2022-09-23T07:18:36.157Z,12.13
2022-09-23T07:21:15.253Z,5.80
2022-09-23T07:23:46.533Z,5.72
2022-09-23T07:26:14.402Z,9.50
2022-09-23T07:28:40.913Z,8.90
2022-09-23T07:31:13.375Z,8.75
2022-09-23T07:33:44.042Z,8.95
2022-09-23T07:36:13.572Z,6.28
2022-09-23T07:38:44.435Z,6.13
2022-09-23T07:41:15.111Z,5.63
2022-09-23T07:43:41.581Z,6.03
2022-09-23T07:46:11.580Z,6.50
2022-09-23T07:48:38.905Z,8.82
2022-09-23T07:51:21.280Z,5.00
2022-09-23T07:53:49.220Z,5.10
2022-09-23T07:56:17.440Z,6.10
2022-09-23T07:58:43.921Z,6.15
2022-09-23T08:01:11.937Z,8.98
2022-09-23T08:03:39.245Z,7.75
2022-09-23T08:06:13.258Z,7.53
2022-09-23T08:08:43.285Z,7.03
2022-09-23T08:11:12.319Z,6.25
2022-09-23T08:13:38.944Z,7.07
2022-09-23T08:16:05.649Z,6.93
2022-09-23T08:18:32.956Z,8.20
2022-09-23T08:20:59.339Z,7.93
2022-09-23T08:23:25.928Z,9.18
2022-09-23T08:26:02.945Z,7.13
2022-09-23T08:28:30.088Z,8.32
2022-09-23T08:30:56.515Z,8.60
2022-09-23T08:33:23.890Z,11.48
2022-09-23T08:35:51.099Z,7.45
2022-09-23T08:38:17.581Z,10.85
2022-09-23T08:40:47.382Z,8.70
2022-09-23T08:43:32.574Z,9.13
2022-09-23T08:46:03.771Z,9.60
2022-09-23T08:48:45.705Z,9.93
2022-09-23T08:51:15.880Z,8.90
2022-09-23T08:53:42.888Z,9.05
2022-09-23T08:56:16.260Z,8.98
2022-09-23T08:59:08.293Z,6.40
2022-09-23T09:01:43.913Z,7.07
2022-09-23T09:04:42.926Z,10.10
2022-09-23T09:10:03.554Z,9.02
2022-09-23T09:13:07.428Z,5.60
2022-09-23T09:15:44.045Z,8.40
2022-09-23T09:18:20.831Z,11.40
2022-09-23T09:21:12.538Z,8.93
2022-09-23T09:23:43.757Z,8.05
2022-09-23T09:26:22.694Z,8.57
2022-09-23T09:29:02.523Z,9.30
2022-09-23T09:31:46.352Z,8.88
2022-09-23T09:34:20.289Z,8.48
2022-09-23T09:36:57.497Z,5.53
2022-09-23T09:39:26.311Z,7.28
2022-09-23T09:41:53.661Z,6.22
2022-09-23T09:44:40.706Z,10.93
2022-09-23T09:47:28.565Z,7.38
2022-09-23T09:50:13.934Z,6.65
2022-09-23T09:52:43.024Z,5.40
2022-09-23T09:55:12.307Z,9.02
2022-09-23T09:58:01.696Z,6.85
2022-09-23T10:00:28.175Z,6.45
2022-09-23T10:02:59.390Z,6.30
2022-09-23T10:05:33.088Z,8.32
2022-09-23T10:08:37.791Z,9.93
2022-09-23T10:11:13.348Z,11.43
2022-09-23T10:13:39.766Z,9.43
2022-09-23T10:16:06.592Z,5.20
2022-09-23T10:18:39.086Z,10.20
2022-09-23T10:21:14.382Z,7.80
2022-09-23T10:24:00.854Z,5.70
2022-09-23T10:26:51.197Z,5.72
2022-09-23T10:29:29.703Z,7.65
2022-09-23T10:32:31.643Z,6.75
2022-09-23T10:35:08.899Z,9.48
2022-09-23T10:37:41.455Z,7.47
2022-09-23T10:40:48.810Z,6.82
2022-09-23T10:43:36.932Z,6.57
2022-09-23T10:46:26.272Z,10.02
2022-09-23T10:49:31.123Z,4.75
2022-09-23T10:52:00.230Z,6.55
2022-09-23T10:54:59.296Z,16.60
2022-09-23T10:57:46.409Z,10.27
2022-09-23T11:00:34.596Z,4.63
2022-09-23T11:03:48.763Z,4.90
2022-09-23T11:06:18.132Z,7.97
2022-09-23T11:09:03.126Z,7.07
2022-09-23T11:11:35.363Z,7.60
2022-09-23T11:14:15.828Z,12.23
2022-09-23T11:17:05.979Z,5.35
2022-09-23T11:19:51.396Z,6.53
2022-09-23T11:22:36.384Z,5.03
2022-09-23T11:25:31.210Z,5.68
2022-09-23T11:28:09.628Z,6.13
2022-09-23T11:31:12.504Z,7.20
2022-09-23T11:33:53.012Z,5.97
2022-09-23T11:36:25.386Z,7.18
2022-09-23T11:38:54.751Z,4.28
2022-09-23T11:41:27.076Z,4.97
2022-09-23T11:44:04.230Z,7.55
2022-09-23T11:46:37.766Z,6.22
2022-09-23T11:49:17.194Z,4.32
2022-09-23T11:51:57.435Z,6.70
2022-09-23T11:54:49.758Z,7.78
2022-09-23T11:57:41.037Z,8.93
2022-09-23T12:00:16.223Z,4.15
2022-09-23T12:03:05.679Z,4.28
2022-09-23T12:05:58.623Z,5.00
2022-09-23T12:08:33.535Z,3.55
2022-09-23T12:11:19.578Z,7.22
2022-09-23T12:14:28.193Z,3.05
2022-09-23T12:17:16.655Z,2.65
2022-09-23T12:20:17.113Z,3.90
2022-09-23T12:22:57.531Z,4.85
2022-09-23T12:25:49.860Z,7.70
2022-09-23T12:28:27.154Z,2.40
2022-09-23T12:30:57.548Z,3.95
2022-09-23T12:33:27.621Z,2.65
2022-09-23T12:36:01.787Z,3.08
2022-09-23T12:38:41.044Z,3.60
2022-09-23T12:41:24.000Z,3.58
2022-09-23T12:43:55.280Z,3.92
2022-09-23T12:46:27.378Z,4.30
2022-09-23T12:48:57.306Z,6.72
2022-09-23T12:51:25.676Z,4.07
2022-09-23T12:53:58.681Z,5.53
2022-09-23T12:56:53.753Z,4.50
2022-09-23T12:59:32.431Z,13.90
2022-09-23T13:02:24.479Z,4.72
2022-09-23T13:05:41.514Z,8.00
2022-09-23T13:08:13.569Z,6.05
2022-09-23T13:10:43.287Z,4.32
2022-09-23T13:13:22.278Z,2.70
2022-09-23T13:15:49.017Z,6.53
2022-09-23T13:18:18.414Z,3.58
2022-09-23T13:20:47.033Z,3.83
2022-09-23T13:23:21.693Z,7.68
2022-09-23T13:25:51.464Z,7.00
2022-09-23T13:28:55.820Z,2.50
2022-09-23T13:31:22.315Z,4.20
2022-09-23T13:33:54.343Z,5.18
2022-09-23T13:36:21.160Z,7.68
2022-09-23T13:38:47.568Z,9.20
2022-09-23T13:41:28.547Z,10.70
2022-09-23T13:43:58.612Z,4.70
2022-09-23T13:46:27.870Z,3.72
2022-09-23T13:48:55.455Z,5.43
2022-09-23T13:51:26.957Z,5.30
2022-09-23T13:53:58.810Z,8.68
2022-09-23T13:56:27.914Z,3.47
2022-09-23T13:58:56.644Z,4.90
2022-09-23T14:01:32.116Z,4.95
2022-09-23T14:03:59.353Z,4.88
2022-09-23T14:06:27.360Z,4.88
2022-09-23T14:08:54.105Z,3.83
2022-09-23T14:11:33.036Z,4.68
2022-09-23T14:14:07.601Z,6.45
2022-09-23T14:16:39.522Z,6.80
2022-09-23T14:19:08.030Z,4.95
2022-09-23T14:21:36.993Z,6.65
2022-09-23T14:24:14.029Z,3.83
2022-09-23T14:26:46.503Z,7.78
2022-09-23T14:29:17.429Z,5.18
2022-09-23T14:31:56.847Z,6.60
2022-09-23T14:34:39.616Z,6.47
2022-09-23T14:37:33.755Z,4.18
2022-09-23T14:40:00.756Z,13.18
2022-09-23T14:42:38.358Z,3.75
2022-09-23T14:45:05.675Z,4.65
2022-09-23T14:47:34.376Z,2.90
2022-09-23T14:50:19.692Z,3.83
2022-09-23T14:52:50.171Z,6.25
2022-09-23T14:55:18.281Z,10.70
2022-09-23T14:57:45.751Z,2.85
2022-09-23T15:00:20.282Z,6.68
2022-09-23T15:03:04.540Z,2.90
2022-09-23T15:08:06.509Z,5.60
2022-09-23T15:10:37.493Z,2.92
2022-09-23T15:13:09.102Z,3.60
2022-09-23T15:15:36.058Z,4.28
2022-09-23T15:18:04.837Z,3.30
2022-09-23T15:20:31.853Z,5.40
2022-09-23T15:22:58.325Z,3.63
2022-09-23T15:25:40.085Z,5.30
2022-09-23T15:28:06.575Z,3.35
2022-09-23T15:30:35.561Z,3.28
2022-09-23T15:33:02.241Z,7.07
2022-09-23T15:35:28.912Z,4.15
2022-09-23T15:37:58.806Z,6.25
2022-09-23T15:40:28.749Z,5.72
2022-09-23T15:42:58.559Z,3.67
2022-09-23T15:45:33.326Z,4.03
2022-09-23T15:48:06.843Z,4.45
2022-09-23T15:50:35.053Z,6.72
2022-09-23T15:53:01.545Z,6.80
2022-09-23T15:55:27.916Z,4.35
2022-09-23T15:57:54.361Z,5.88
2022-09-23T16:00:21.291Z,8.85
2022-09-23T16:02:49.229Z,3.72
2022-09-23T16:05:37.861Z,3.88
2022-09-23T16:08:08.920Z,6.78
2022-09-23T16:10:36.798Z,6.38
2022-09-23T16:13:06.234Z,5.70
2022-09-23T16:15:32.970Z,8.60
2022-09-23T16:18:00.198Z,5.20
2022-09-23T16:20:29.759Z,6.28
2022-09-23T16:23:01.949Z,7.10
2022-09-23T16:25:31.424Z,4.18
2022-09-23T16:27:58.446Z,9.82
2022-09-23T16:30:30.417Z,6.82
2022-09-23T16:32:56.935Z,7.00
2022-09-23T16:35:26.896Z,5.55
2022-09-23T16:37:53.634Z,4.15
2022-09-23T16:40:22.516Z,7.97
2022-09-23T16:42:51.092Z,9.02
2022-09-23T16:45:18.999Z,5.95
2022-09-23T16:47:47.614Z,9.50
2022-09-23T16:50:16.421Z,5.88
2022-09-23T16:52:43.705Z,7.53
2022-09-23T16:55:12.322Z,8.38
2022-09-23T16:57:39.628Z,4.85
2022-09-23T17:00:32.345Z,8.52
2022-09-23T17:03:17.427Z,7.43
2022-09-23T17:05:46.571Z,6.18
2022-09-23T17:08:15.047Z,6.28
2022-09-23T17:10:43.039Z,5.97
2022-09-23T17:13:11.010Z,7.30
2022-09-23T17:15:41.367Z,9.15
2022-09-23T17:18:09.110Z,4.68
2022-09-23T17:20:35.675Z,5.03
2022-09-23T17:23:05.354Z,3.38
2022-09-23T17:25:33.888Z,9.52
2022-09-23T17:28:00.818Z,6.93
2022-09-23T17:30:27.593Z,5.35
2022-09-23T17:32:54.171Z,8.25
2022-09-23T17:35:20.544Z,8.95
2022-09-23T17:37:47.595Z,7.90
2022-09-23T17:40:14.236Z,6.95
2022-09-23T17:42:41.324Z,9.50
2022-09-23T17:45:10.294Z,9.57
2022-09-23T17:47:41.314Z,11.05
2022-09-23T17:50:08.242Z,10.70
2022-09-23T17:52:34.615Z,8.27
2022-09-23T17:55:01.051Z,9.05
2022-09-23T17:57:27.424Z,7.40
2022-09-23T17:59:53.953Z,9.52
2022-09-23T18:02:22.462Z,8.35
2022-09-23T18:04:48.957Z,9.77
2022-09-23T18:07:15.321Z,9.18
2022-09-23T18:09:41.725Z,9.60
2022-09-23T18:12:08.111Z,10.43
2022-09-23T18:14:34.501Z,9.10
2022-09-23T18:17:00.859Z,13.38
2022-09-23T18:19:27.224Z,12.48
2022-09-23T18:21:56.279Z,12.38
2022-09-23T18:24:38.718Z,11.05
2022-09-23T18:27:06.400Z,11.70
2022-09-23T18:29:34.343Z,15.80
2022-09-23T18:32:01.299Z,12.68
2022-09-23T18:34:28.550Z,14.68
2022-09-23T18:36:56.092Z,14.63
2022-09-23T18:39:22.548Z,15.90
2022-09-23T18:41:49.517Z,10.88
2022-09-23T18:44:16.788Z,13.65
2022-09-23T18:46:44.728Z,10.10
2022-09-23T18:49:29.524Z,10.18
2022-09-23T18:51:57.767Z,9.38
2022-09-23T18:54:25.964Z,11.98
2022-09-23T18:56:52.713Z,9.88
2022-09-23T18:59:23.647Z,10.18
2022-09-23T19:01:50.726Z,11.88
2022-09-23T19:04:19.892Z,12.02
2022-09-23T19:06:47.185Z,11.77
2022-09-23T19:09:15.069Z,9.48
2022-09-23T19:11:41.570Z,10.85
2022-09-23T19:14:11.397Z,8.10
2022-09-23T19:16:39.460Z,11.07
2022-09-23T19:19:06.543Z,15.30
2022-09-23T19:21:33.517Z,11.55
2022-09-23T19:24:03.367Z,11.93
2022-09-23T19:26:34.439Z,10.35
2022-09-23T19:29:02.676Z,10.88
2022-09-23T19:31:33.319Z,11.00
2022-09-23T19:34:01.192Z,14.20
2022-09-23T19:36:33.207Z,13.15
2022-09-23T19:39:03.180Z,10.98
2022-09-23T19:41:32.171Z,10.82
2022-09-23T19:44:03.266Z,12.23
2022-09-23T19:46:33.617Z,11.40
2022-09-23T19:49:00.591Z,11.82
2022-09-23T19:51:27.628Z,11.20
2022-09-23T19:53:53.987Z,9.73
2022-09-23T19:56:20.452Z,11.10
2022-09-23T19:58:49.495Z,11.60
2022-09-23T20:01:16.566Z,13.15
2022-09-23T20:03:47.094Z,12.75
2022-09-23T20:06:14.814Z,12.77
2022-09-23T20:08:41.351Z,14.93
2022-09-23T20:11:11.518Z,13.30
2022-09-23T20:13:42.534Z,11.00
2022-09-23T20:16:11.487Z,11.63
2022-09-23T20:18:38.488Z,14.25
2022-09-23T20:21:06.224Z,12.93
2022-09-23T20:23:32.856Z,14.02
2022-09-23T20:26:19.443Z,12.13
2022-09-23T20:28:46.196Z,13.25
2022-09-23T20:31:13.553Z,13.90
2022-09-23T20:33:41.535Z,22.27
2022-09-23T20:36:13.160Z,14.68
2022-09-23T20:38:40.448Z,14.18
2022-09-23T20:41:08.268Z,11.20
2022-09-23T20:43:35.381Z,15.82
2022-09-23T20:46:05.385Z,12.52
2022-09-23T20:48:31.809Z,16.50
2022-09-23T20:51:02.619Z,11.82
2022-09-23T20:53:29.431Z,13.63
2022-09-23T20:55:58.117Z,12.88
2022-09-23T20:58:29.419Z,15.98
2022-09-23T21:01:27.212Z,12.43
2022-09-23T21:03:55.761Z,14.77
2022-09-23T21:06:26.078Z,12.75
2022-09-23T21:08:53.641Z,13.68
2022-09-23T21:11:20.431Z,14.13
2022-09-23T21:13:48.092Z,14.40
2022-09-23T21:16:16.101Z,18.25
2022-09-23T21:18:43.660Z,11.52
2022-09-23T21:21:12.088Z,14.10
2022-09-23T21:23:39.281Z,15.32
2022-09-23T21:26:12.014Z,14.68
2022-09-23T21:28:43.354Z,15.02
2022-09-23T21:31:25.610Z,12.45
2022-09-23T21:33:59.019Z,13.70
2022-09-23T21:36:27.408Z,15.73
2022-09-23T21:38:53.892Z,13.57
2022-09-23T21:41:26.048Z,18.00
2022-09-23T21:43:52.537Z,18.98
2022-09-23T21:46:20.862Z,15.93
2022-09-23T21:48:50.372Z,15.32
2022-09-23T21:51:19.194Z,16.17
2022-09-23T21:53:46.006Z,14.85
2022-09-23T21:56:20.711Z,16.00
2022-09-23T21:58:47.945Z,15.00
2022-09-23T22:01:22.368Z,12.45
2022-09-23T22:03:52.348Z,12.45
2022-09-23T22:06:21.735Z,13.18
2022-09-23T22:08:54.280Z,12.48
2022-09-23T22:11:42.049Z,13.65
2022-09-23T22:14:12.409Z,17.50
2022-09-23T22:16:39.789Z,19.35
2022-09-23T22:19:09.817Z,18.70
2022-09-23T22:21:38.650Z,20.73
2022-09-23T22:24:07.361Z,22.50
2022-09-23T22:26:44.504Z,20.45
2022-09-23T22:29:34.695Z,22.77
2022-09-23T22:32:20.985Z,19.30
2022-09-23T22:34:50.567Z,21.08
2022-09-23T22:37:25.632Z,17.08
2022-09-23T22:39:52.860Z,15.18
2022-09-23T22:42:22.276Z,20.85
2022-09-23T22:44:49.052Z,12.65
2022-09-23T22:47:17.531Z,15.98
2022-09-23T22:49:44.004Z,13.40
2022-09-23T22:52:12.347Z,12.82
2022-09-23T22:54:38.701Z,12.98
2022-09-23T22:57:06.838Z,13.30
2022-09-23T22:59:33.758Z,11.80
2022-09-23T23:02:02.322Z,9.35
2022-09-23T23:04:29.963Z,10.80
2022-09-23T23:06:58.174Z,11.80
2022-09-23T23:09:24.564Z,11.38
2022-09-23T23:11:50.949Z,8.80
2022-09-23T23:14:18.392Z,7.47
2022-09-23T23:16:46.112Z,10.80
2022-09-23T23:19:14.487Z,15.02
2022-09-23T23:21:44.818Z,9.73
2022-09-23T23:24:16.888Z,11.70
2022-09-23T23:26:43.633Z,8.18
2022-09-23T23:29:14.041Z,8.80
2022-09-23T23:31:40.913Z,9.13
2022-09-23T23:34:17.534Z,8.70
2022-09-23T23:36:44.447Z,9.75
2022-09-23T23:39:11.510Z,9.93
2022-09-23T23:41:39.456Z,8.75
2022-09-23T23:44:07.047Z,9.95
2022-09-23T23:46:34.067Z,8.75
2022-09-23T23:49:00.560Z,10.13
2022-09-23T23:51:27.657Z,12.77
2022-09-23T23:53:54.895Z,12.93
2022-09-23T23:56:23.404Z,10.40
2022-09-23T23:58:58.213Z,8.07
